createdAt,value
2018-04-23T06:50:30.463Z,10.77
2018-04-23T06:51:33.547Z,9.95
2018-04-23T06:52:37.071Z,10.73
2018-04-23T06:53:40.318Z,10.30
2018-04-23T06:54:43.920Z,11.07
2018-04-23T06:55:47.037Z,10.55
2018-04-23T06:56:50.210Z,12.23
2018-04-23T06:57:53.326Z,10.50
2018-04-23T06:58:56.419Z,9.63
2018-04-23T06:59:59.498Z,10.20
2018-04-23T07:01:03.029Z,11.75
2018-04-23T07:02:06.109Z,11.05
2018-04-23T07:03:09.450Z,11.57
2018-04-23T07:04:12.756Z,9.90
2018-04-23T07:05:15.814Z,11.02
2018-04-23T07:06:18.953Z,9.75
2018-04-23T07:07:22.115Z,10.98
2018-04-23T07:08:25.218Z,10.57
2018-04-23T07:09:28.253Z,10.75
2018-04-23T07:10:31.424Z,10.27
2018-04-23T07:11:34.448Z,11.80
2018-04-23T07:12:37.583Z,11.12
2018-04-23T07:13:40.747Z,12.37
2018-04-23T07:14:43.857Z,11.25
2018-04-23T07:15:47.031Z,12.02
2018-04-23T07:16:50.202Z,12.18
2018-04-23T07:17:53.326Z,11.77
2018-04-23T07:18:56.462Z,12.40
2018-04-23T07:19:59.675Z,11.55
2018-04-23T07:21:02.850Z,12.23
2018-04-23T07:22:05.961Z,12.50
2018-04-23T07:23:09.046Z,11.23
2018-04-23T07:24:12.148Z,11.43
2018-04-23T07:25:15.198Z,12.05
2018-04-23T07:26:18.279Z,12.57
2018-04-23T07:27:21.375Z,12.82
2018-04-23T07:28:24.455Z,11.90
2018-04-23T07:29:27.585Z,10.80
2018-04-23T07:30:30.633Z,11.25
2018-04-23T07:31:33.671Z,11.57
2018-04-23T07:32:36.795Z,11.98
2018-04-23T07:33:39.896Z,12.60
2018-04-23T07:34:42.933Z,12.18
2018-04-23T07:35:46.036Z,12.37
2018-04-23T07:36:49.091Z,10.55
2018-04-23T07:37:52.195Z,10.52
2018-04-23T07:38:55.277Z,12.75
2018-04-23T07:39:58.495Z,11.02
2018-04-23T07:41:01.552Z,11.50
2018-04-23T07:42:04.598Z,12.02
2018-04-23T07:43:07.686Z,11.85
2018-04-23T07:44:10.806Z,12.43
2018-04-23T07:45:14.188Z,11.77
2018-04-23T07:46:17.236Z,12.20
2018-04-23T07:47:20.406Z,11.32
2018-04-23T07:48:24.088Z,11.45
2018-04-23T07:49:27.185Z,11.60
2018-04-23T07:50:30.276Z,12.23
2018-04-23T07:51:33.387Z,12.48
2018-04-23T07:52:36.428Z,11.40
2018-04-23T07:53:39.504Z,12.35
2018-04-23T07:54:42.636Z,11.35
2018-04-23T07:55:45.690Z,11.18
2018-04-23T07:56:48.745Z,11.15
2018-04-23T07:57:51.826Z,11.12
2018-04-23T07:58:54.911Z,11.85
2018-04-23T07:59:58.020Z,12.23
2018-04-23T08:01:01.159Z,10.55
2018-04-23T08:02:04.441Z,10.55
2018-04-23T08:03:07.627Z,9.90
2018-04-23T08:04:10.701Z,11.57
2018-04-23T08:05:13.758Z,9.32
2018-04-23T08:06:16.803Z,9.60
2018-04-23T08:07:20.437Z,9.68
2018-04-23T08:08:24.242Z,8.57
2018-04-23T08:09:27.457Z,8.18
2018-04-23T08:10:30.499Z,8.45
2018-04-23T08:11:33.749Z,8.93
2018-04-23T08:12:37.070Z,9.40
2018-04-23T08:13:40.239Z,8.95
2018-04-23T08:14:43.563Z,8.00
2018-04-23T08:15:46.920Z,8.63
2018-04-23T08:16:50.168Z,8.98
2018-04-23T08:17:53.212Z,8.20
2018-04-23T08:18:56.283Z,8.70
2018-04-23T08:19:59.338Z,8.45
2018-04-23T08:21:02.411Z,8.52
2018-04-23T08:22:05.614Z,8.52
2018-04-23T08:23:08.703Z,9.02
2018-04-23T08:24:11.912Z,8.27
2018-04-23T08:25:14.953Z,8.68
2018-04-23T08:26:18.154Z,8.05
2018-04-23T08:27:21.326Z,8.30
2018-04-23T08:28:24.375Z,8.77
2018-04-23T08:29:27.452Z,9.15
2018-04-23T08:30:31.575Z,8.43
2018-04-23T08:31:34.639Z,10.20
2018-04-23T08:32:37.775Z,9.10
2018-04-23T08:33:41.047Z,8.90
2018-04-23T08:34:44.095Z,7.65
2018-04-23T08:35:47.476Z,8.10
2018-04-23T08:36:50.572Z,7.15
2018-04-23T08:37:53.660Z,8.80
2018-04-23T08:38:56.690Z,8.63
2018-04-23T08:39:59.827Z,8.93
2018-04-23T08:41:02.906Z,7.80
2018-04-23T08:42:05.955Z,8.43
2018-04-23T08:43:09.106Z,9.40
2018-04-23T08:44:12.404Z,8.43
2018-04-23T08:45:15.510Z,8.82
2018-04-23T08:46:18.602Z,8.88
2018-04-23T08:47:21.736Z,9.88
2018-04-23T08:48:24.934Z,10.15
2018-04-23T08:49:28.132Z,9.15
2018-04-23T08:50:31.483Z,8.25
2018-04-23T08:51:34.810Z,7.87
2018-04-23T08:52:37.918Z,10.32
2018-04-23T08:53:41.100Z,8.32
2018-04-23T08:54:44.390Z,8.43
2018-04-23T08:55:47.494Z,8.60
2018-04-23T08:56:50.571Z,8.15
2018-04-23T08:57:53.972Z,8.70
2018-04-23T08:58:56.986Z,7.75
2018-04-23T09:00:00.113Z,8.25
2018-04-23T09:01:03.871Z,8.30
2018-04-23T09:02:06.915Z,9.15
2018-04-23T09:03:10.022Z,8.95
2018-04-23T09:04:13.148Z,7.93
2018-04-23T09:05:16.226Z,8.40
2018-04-23T09:06:19.272Z,7.82
2018-04-23T09:07:22.372Z,7.85
2018-04-23T09:08:25.427Z,8.93
2018-04-23T09:09:28.492Z,8.75
2018-04-23T09:10:31.535Z,8.35
2018-04-23T09:11:34.592Z,8.55
2018-04-23T09:12:37.664Z,8.52
2018-04-23T09:13:40.714Z,7.75
2018-04-23T09:14:43.743Z,8.68
2018-04-23T09:15:46.815Z,8.35
2018-04-23T09:16:49.948Z,9.05
2018-04-23T09:17:53.087Z,7.90
2018-04-23T09:18:56.079Z,8.48
2018-04-23T09:19:59.150Z,8.25
2018-04-23T09:21:02.327Z,8.88
2018-04-23T09:22:05.504Z,10.48
2018-04-23T09:23:08.679Z,7.68
2018-04-23T09:24:11.751Z,7.72
2018-04-23T09:25:14.833Z,8.02
2018-04-23T09:26:17.904Z,9.57
2018-04-23T09:27:20.936Z,9.27
2018-04-23T09:28:24.129Z,10.07
2018-04-23T09:29:27.159Z,9.90
2018-04-23T09:30:30.212Z,10.13
2018-04-23T09:31:33.322Z,9.90
2018-04-23T09:32:36.368Z,13.35
2018-04-23T09:33:39.493Z,12.55
2018-04-23T09:34:42.590Z,11.18
2018-04-23T09:35:45.649Z,13.10
2018-04-23T09:36:48.720Z,10.90
2018-04-23T09:37:51.766Z,11.40
2018-04-23T09:38:54.901Z,10.40
2018-04-23T09:39:57.917Z,11.07
2018-04-23T09:41:01.096Z,12.10
2018-04-23T09:42:04.135Z,12.23
2018-04-23T09:43:07.201Z,11.60
2018-04-23T09:44:10.290Z,10.30
2018-04-23T09:45:13.431Z,11.65
2018-04-23T09:46:16.460Z,10.00
2018-04-23T09:47:19.584Z,9.30
2018-04-23T09:48:22.628Z,9.40
2018-04-23T09:49:25.973Z,8.70
2018-04-23T09:50:29.258Z,9.95
2018-04-23T09:51:32.539Z,9.18
2018-04-23T09:52:35.592Z,9.95
2018-04-23T09:53:38.642Z,12.90
2018-04-23T09:54:41.822Z,12.57
2018-04-23T09:55:44.955Z,23.02
2018-04-23T09:56:47.999Z,10.13
2018-04-23T09:57:51.131Z,10.82
2018-04-23T09:58:54.204Z,9.73
2018-04-23T09:59:57.600Z,10.75
2018-04-23T10:01:00.687Z,10.98
2018-04-23T10:02:10.985Z,9.60
2018-04-23T10:03:14.153Z,10.25
2018-04-23T10:04:21.313Z,9.25
2018-04-23T10:05:24.401Z,8.90
2018-04-23T10:06:27.489Z,7.85
2018-04-23T10:07:30.560Z,9.20
2018-04-23T10:08:33.615Z,8.05
2018-04-23T10:09:36.656Z,10.93
2018-04-23T10:10:39.747Z,8.32
2018-04-23T10:11:43.353Z,7.35
2018-04-23T10:12:46.435Z,8.05
2018-04-23T10:13:49.484Z,7.85
2018-04-23T10:14:52.600Z,7.60
2018-04-23T10:15:55.675Z,7.85
2018-04-23T10:16:58.843Z,8.07
2018-04-23T10:18:01.879Z,8.55
2018-04-23T10:19:04.926Z,7.50
2018-04-23T10:20:08.019Z,8.45
2018-04-23T10:21:11.112Z,7.28
2018-04-23T10:22:14.551Z,7.32
2018-04-23T10:23:17.907Z,8.02
2018-04-23T10:24:21.223Z,7.05
2018-04-23T10:25:24.286Z,7.32
2018-04-23T10:26:27.764Z,6.80
2018-04-23T10:27:30.793Z,7.40
2018-04-23T10:28:33.956Z,7.80
2018-04-23T10:29:37.011Z,7.28
2018-04-23T10:30:40.149Z,7.50
2018-04-23T10:31:43.351Z,7.37
2018-04-23T10:32:46.472Z,6.37
2018-04-23T10:33:49.520Z,7.18
2018-04-23T10:34:52.748Z,7.97
2018-04-23T10:35:55.814Z,7.15
2018-04-23T10:36:58.892Z,7.00
2018-04-23T10:38:02.015Z,7.22
2018-04-23T10:39:07.831Z,6.55
2018-04-23T10:40:11.136Z,6.65
2018-04-23T10:41:14.454Z,6.93
2018-04-23T10:42:17.538Z,7.40
2018-04-23T10:43:20.707Z,6.37
2018-04-23T10:44:24.023Z,6.75
2018-04-23T10:45:27.190Z,6.70
2018-04-23T10:46:30.182Z,6.53
2018-04-23T10:47:33.423Z,5.53
2018-04-23T10:48:36.476Z,7.37
2018-04-23T10:49:39.588Z,7.15
2018-04-23T10:50:42.725Z,7.50
2018-04-23T10:51:46.792Z,6.78
2018-04-23T10:52:49.845Z,6.40
2018-04-23T10:53:53.008Z,7.05
2018-04-23T10:54:56.191Z,6.90
2018-04-23T10:55:59.369Z,7.05
2018-04-23T10:57:02.797Z,7.70
2018-04-23T10:58:06.047Z,6.62
2018-04-23T10:59:09.436Z,6.80
2018-04-23T11:00:12.964Z,6.37
2018-04-23T11:01:16.127Z,6.72
2018-04-23T11:02:19.213Z,6.15
2018-04-23T11:03:22.309Z,5.78
2018-04-23T11:04:25.380Z,6.43
2018-04-23T11:05:28.612Z,5.95
2018-04-23T11:06:31.885Z,6.28
2018-04-23T11:07:34.920Z,6.00
2018-04-23T11:08:37.979Z,6.00
2018-04-23T11:09:41.340Z,5.68
2018-04-23T11:10:44.380Z,4.90
2018-04-23T11:11:47.581Z,4.97
2018-04-23T11:12:50.655Z,5.75
2018-04-23T11:13:53.835Z,5.62
2018-04-23T11:14:56.951Z,6.00
2018-04-23T11:16:00.013Z,6.20
2018-04-23T11:17:03.056Z,5.70
2018-04-23T11:18:06.088Z,5.53
2018-04-23T11:19:09.276Z,6.00
2018-04-23T11:20:12.582Z,5.30
2018-04-23T11:21:15.632Z,6.00
2018-04-23T11:22:18.678Z,6.47
2018-04-23T11:23:21.782Z,5.47
2018-04-23T11:24:24.932Z,6.05
2018-04-23T11:25:27.995Z,6.35
2018-04-23T11:26:31.323Z,5.10
2018-04-23T11:27:34.380Z,5.75
2018-04-23T11:28:37.445Z,5.45
2018-04-23T11:29:40.518Z,6.50
2018-04-23T11:30:43.642Z,4.90
2018-04-23T11:31:46.756Z,6.57
2018-04-23T11:32:49.830Z,12.75
2018-04-23T11:33:52.917Z,6.65
2018-04-23T11:34:56.073Z,5.30
2018-04-23T11:35:59.165Z,5.95
2018-04-23T11:37:02.498Z,6.30
2018-04-23T11:38:05.613Z,6.28
2018-04-23T11:39:08.706Z,5.60
2018-04-23T11:40:11.789Z,6.30
2018-04-23T11:41:14.881Z,6.28
2018-04-23T11:42:17.943Z,5.72
2018-04-23T11:43:20.991Z,5.65
2018-04-23T11:44:24.063Z,5.28
2018-04-23T11:45:27.215Z,5.90
2018-04-23T11:46:30.274Z,5.78
2018-04-23T11:47:33.335Z,5.53
2018-04-23T11:48:36.415Z,5.10
2018-04-23T11:49:39.479Z,4.80
2018-04-23T11:50:42.576Z,5.35
2018-04-23T11:51:45.707Z,5.18
2018-04-23T11:52:50.438Z,5.50
2018-04-23T11:53:53.483Z,4.85
2018-04-23T11:54:56.596Z,5.40
2018-04-23T11:55:59.682Z,4.40
2018-04-23T11:57:02.821Z,4.87
2018-04-23T11:58:06.006Z,5.43
2018-04-23T11:59:09.055Z,5.10
2018-04-23T12:00:12.224Z,6.20
2018-04-23T12:01:15.472Z,5.93
2018-04-23T12:02:18.586Z,5.55
2018-04-23T12:03:21.814Z,4.70
2018-04-23T12:04:24.992Z,5.55
2018-04-23T12:05:28.144Z,5.45
2018-04-23T12:06:31.431Z,5.72
2018-04-23T12:07:34.512Z,5.22
2018-04-23T12:08:37.625Z,5.12
2018-04-23T12:09:40.786Z,5.43
2018-04-23T12:10:43.811Z,6.03
2018-04-23T12:11:46.889Z,6.75
2018-04-23T12:12:49.940Z,5.85
2018-04-23T12:13:52.978Z,7.15
2018-04-23T12:14:56.059Z,7.55
2018-04-23T12:15:59.195Z,7.53
2018-04-23T12:17:02.335Z,5.90
2018-04-23T12:18:05.679Z,6.00
2018-04-23T12:19:08.910Z,6.47
2018-04-23T12:20:12.298Z,5.78
2018-04-23T12:21:15.325Z,6.47
2018-04-23T12:22:18.566Z,6.78
2018-04-23T12:23:21.792Z,6.45
2018-04-23T12:24:24.856Z,6.60
2018-04-23T12:25:27.988Z,7.03
2018-04-23T12:26:31.104Z,5.65
2018-04-23T12:27:34.198Z,6.15
2018-04-23T12:28:37.259Z,6.15
2018-04-23T12:29:40.336Z,6.50
2018-04-23T12:30:43.386Z,6.55
2018-04-23T12:31:46.508Z,7.18
2018-04-23T12:32:49.548Z,6.40
2018-04-23T12:33:52.622Z,5.95
2018-04-23T12:34:55.713Z,6.32
2018-04-23T12:35:58.747Z,6.80
2018-04-23T12:37:01.875Z,6.87
2018-04-23T12:38:04.913Z,7.50
2018-04-23T12:39:07.963Z,7.05
2018-04-23T12:40:11.004Z,6.28
2018-04-23T12:41:14.324Z,6.57
2018-04-23T12:42:17.383Z,5.70
2018-04-23T12:43:20.445Z,5.97
2018-04-23T12:44:23.607Z,5.93
2018-04-23T12:45:26.855Z,5.80
2018-04-23T12:46:29.906Z,6.40
2018-04-23T12:47:32.949Z,6.10
2018-04-23T12:48:36.011Z,6.40
2018-04-23T12:49:39.069Z,6.82
2018-04-23T12:50:42.177Z,5.75
2018-04-23T12:51:45.292Z,6.32
2018-04-23T12:52:48.414Z,5.45
2018-04-23T12:53:51.467Z,6.97
2018-04-23T12:56:03.955Z,6.82
2018-04-23T12:57:07.043Z,6.22
2018-04-23T12:58:10.156Z,6.50
2018-04-23T12:59:13.226Z,5.78
2018-04-23T13:00:16.322Z,5.85
2018-04-23T13:01:19.529Z,5.57
2018-04-23T13:02:22.679Z,6.00
2018-04-23T13:03:25.717Z,5.15
2018-04-23T13:04:28.907Z,5.70
2018-04-23T13:05:31.934Z,5.43
2018-04-23T13:06:35.382Z,5.43
2018-04-23T13:07:38.440Z,5.68
2018-04-23T13:08:41.463Z,5.43
2018-04-23T13:09:44.697Z,6.00
2018-04-23T13:10:47.815Z,5.85
2018-04-23T13:11:50.955Z,7.10
2018-04-23T13:12:54.071Z,6.90
2018-04-23T13:13:57.248Z,6.53
2018-04-23T13:15:00.663Z,6.18
2018-04-23T13:16:03.775Z,6.80
2018-04-23T13:17:06.877Z,6.90
2018-04-23T13:18:10.043Z,6.72
2018-04-23T13:19:13.116Z,7.28
2018-04-23T13:20:16.323Z,7.97
2018-04-23T13:21:19.441Z,7.10
2018-04-23T13:22:22.530Z,6.90
2018-04-23T13:23:25.630Z,7.55
2018-04-23T13:24:28.673Z,7.60
2018-04-23T13:25:31.801Z,6.87
2018-04-23T13:26:35.103Z,5.25
2018-04-23T13:27:38.229Z,6.25
2018-04-23T13:28:41.368Z,6.55
2018-04-23T13:29:44.504Z,6.22
2018-04-23T13:30:47.854Z,5.95
2018-04-23T13:31:51.062Z,6.10
2018-04-23T13:32:54.232Z,5.40
2018-04-23T13:33:57.738Z,5.50
2018-04-23T13:35:00.902Z,5.10
2018-04-23T13:36:03.968Z,5.75
2018-04-23T13:37:07.389Z,5.70
2018-04-23T13:38:10.454Z,5.87
2018-04-23T13:39:19.922Z,5.50
2018-04-23T13:40:23.097Z,5.55
2018-04-23T13:41:26.310Z,5.62
2018-04-23T13:42:29.355Z,5.37
2018-04-23T13:43:32.376Z,5.90
2018-04-23T13:44:35.411Z,5.25
2018-04-23T13:45:38.513Z,5.72
2018-04-23T13:46:41.565Z,5.80
2018-04-23T13:47:44.614Z,5.50
2018-04-23T13:48:47.723Z,6.70
2018-04-23T13:49:50.796Z,6.40
2018-04-23T13:50:53.879Z,5.95
2018-04-23T13:51:56.998Z,6.72
2018-04-23T13:53:00.280Z,7.12
2018-04-23T13:54:03.444Z,7.03
2018-04-23T13:55:06.669Z,6.80
2018-04-23T13:56:09.728Z,5.85
2018-04-23T13:57:12.917Z,7.07
2018-04-23T13:58:15.944Z,7.10
2018-04-23T13:59:19.052Z,6.70
2018-04-23T14:00:22.218Z,7.18
2018-04-23T14:01:25.797Z,7.05
2018-04-23T14:02:28.992Z,6.57
2018-04-23T14:03:32.137Z,6.82
2018-04-23T14:04:35.298Z,7.00
2018-04-23T14:05:38.417Z,6.53
2018-04-23T14:06:41.490Z,6.05
2018-04-23T14:07:44.551Z,7.80
2018-04-23T14:08:47.623Z,6.25
2018-04-23T14:09:50.955Z,7.10
2018-04-23T14:10:54.171Z,6.82
2018-04-23T14:11:57.200Z,6.53
2018-04-23T14:13:00.547Z,6.50
2018-04-23T14:14:03.772Z,5.90
2018-04-23T14:15:06.883Z,7.40
2018-04-23T14:16:09.927Z,6.78
2018-04-23T14:17:12.972Z,7.22
2018-04-23T14:18:16.946Z,6.25
2018-04-23T14:19:20.099Z,7.22
2018-04-23T14:20:23.251Z,6.95
2018-04-23T14:21:26.371Z,8.10
2018-04-23T14:22:29.628Z,8.07
2018-04-23T14:23:32.745Z,7.15
2018-04-23T14:24:35.839Z,6.62
2018-04-23T14:25:38.915Z,7.10
2018-04-23T14:26:41.989Z,7.65
2018-04-23T14:27:45.116Z,7.18
2018-04-23T14:28:48.354Z,7.62
2018-04-23T14:29:51.606Z,8.80
2018-04-23T14:30:54.610Z,7.95
2018-04-23T14:31:57.670Z,7.65
2018-04-23T14:33:00.777Z,8.40
2018-04-23T14:34:03.941Z,8.98
2018-04-23T14:35:07.039Z,7.80
2018-04-23T14:36:10.255Z,9.25
2018-04-23T14:37:13.344Z,7.70
2018-04-23T14:38:16.384Z,8.50
2018-04-23T14:39:19.591Z,8.52
2018-04-23T14:40:22.781Z,8.50
2018-04-23T14:41:26.055Z,8.00
2018-04-23T14:42:29.107Z,8.15
2018-04-23T14:43:32.192Z,8.70
2018-04-23T14:44:35.363Z,8.40
2018-04-23T14:45:38.487Z,8.73
2018-04-23T14:46:41.654Z,9.05
2018-04-23T14:47:44.783Z,9.50
2018-04-23T14:48:47.947Z,9.20
2018-04-23T14:49:51.266Z,8.02
2018-04-23T14:50:54.340Z,8.13
2018-04-23T14:51:57.383Z,8.30
2018-04-23T14:53:00.819Z,9.18
2018-04-23T14:54:04.902Z,8.85
2018-04-23T14:55:11.118Z,8.48
2018-04-23T14:56:16.674Z,8.07
2018-04-23T14:57:22.237Z,8.52
2018-04-23T14:58:25.289Z,9.57
2018-04-23T14:59:28.375Z,8.82
2018-04-23T15:00:31.503Z,9.60
2018-04-23T15:01:34.599Z,8.27
2018-04-23T15:02:37.789Z,8.38
2018-04-23T15:03:40.853Z,8.20
2018-04-23T15:04:43.944Z,8.38
2018-04-23T15:05:47.132Z,7.70
2018-04-23T15:06:50.238Z,7.72
2018-04-23T15:07:53.327Z,8.00
2018-04-23T15:08:56.479Z,7.40
2018-04-23T15:09:59.511Z,8.55
2018-04-23T15:11:02.584Z,7.45
2018-04-23T15:12:05.657Z,7.40
2018-04-23T15:13:08.689Z,7.05
2018-04-23T15:14:11.744Z,7.82
2018-04-23T15:15:14.887Z,8.63
2018-04-23T15:16:18.099Z,7.47
2018-04-23T15:17:21.190Z,8.98
2018-04-23T15:18:24.370Z,8.68
2018-04-23T15:19:27.508Z,8.55
2018-04-23T15:20:30.634Z,8.32
2018-04-23T15:21:33.723Z,9.82
2018-04-23T15:22:37.389Z,8.23
2018-04-23T15:23:40.437Z,9.30
2018-04-23T15:24:43.538Z,9.40
2018-04-23T15:25:46.595Z,8.38
2018-04-23T15:26:49.691Z,9.48
2018-04-23T15:27:52.916Z,9.10
2018-04-23T15:28:56.013Z,9.85
2018-04-23T15:29:59.135Z,10.60
2018-04-23T15:31:02.563Z,10.50
2018-04-23T15:32:05.685Z,11.90
2018-04-23T15:33:08.771Z,10.32
2018-04-23T15:34:11.899Z,11.20
2018-04-23T15:35:15.014Z,11.38
2018-04-23T15:36:18.046Z,10.20
2018-04-23T15:37:21.152Z,11.68
2018-04-23T15:38:24.195Z,9.95
2018-04-23T15:39:27.351Z,9.98
2018-04-23T15:40:30.491Z,10.50
2018-04-23T15:41:33.547Z,11.75
2018-04-23T15:42:36.619Z,10.98
2018-04-23T15:43:39.739Z,10.88
2018-04-23T15:44:42.856Z,11.07
2018-04-23T15:45:46.139Z,12.20
2018-04-23T15:46:49.231Z,10.63
2018-04-23T15:47:52.328Z,9.85
2018-04-23T15:48:55.409Z,10.55
2018-04-23T15:49:58.459Z,10.40
2018-04-23T15:51:01.639Z,10.75
2018-04-23T15:52:04.808Z,11.27
2018-04-23T15:53:07.921Z,11.23
2018-04-23T15:54:11.836Z,10.65
2018-04-23T15:55:14.989Z,10.95
2018-04-23T15:56:18.124Z,11.82
2018-04-23T15:57:21.368Z,11.43
2018-04-23T15:58:24.500Z,11.65
2018-04-23T15:59:27.531Z,13.15
2018-04-23T16:00:30.864Z,11.00
2018-04-23T16:01:34.034Z,12.40
2018-04-23T16:02:37.116Z,10.88
2018-04-23T16:03:40.460Z,11.05
2018-04-23T16:04:43.528Z,11.10
2018-04-23T16:05:46.616Z,10.73
2018-04-23T16:06:49.723Z,10.93
2018-04-23T16:07:52.764Z,11.40
2018-04-23T16:08:55.837Z,10.77
2018-04-23T16:09:58.936Z,11.88
2018-04-23T16:11:02.003Z,9.90
2018-04-23T16:12:05.148Z,10.50
2018-04-23T16:13:08.227Z,12.30
2018-04-23T16:14:11.433Z,11.25
2018-04-23T16:15:14.578Z,11.50
2018-04-23T16:16:17.722Z,11.98
2018-04-23T16:17:20.804Z,12.48
2018-04-23T16:18:24.582Z,12.50
2018-04-23T16:19:27.800Z,11.23
2018-04-23T16:20:31.279Z,12.23
2018-04-23T16:21:34.460Z,13.13
2018-04-23T16:22:37.533Z,12.23
2018-04-23T16:23:40.603Z,11.93
2018-04-23T16:24:43.723Z,11.30
2018-04-23T16:25:46.840Z,11.50
2018-04-23T16:26:49.916Z,11.73
2018-04-23T16:27:53.011Z,12.18
2018-04-23T16:28:56.310Z,10.45
2018-04-23T16:29:59.539Z,11.65
2018-04-23T16:31:02.670Z,10.68
2018-04-23T16:32:05.759Z,13.88
2018-04-23T16:33:08.889Z,10.20
2018-04-23T16:34:11.955Z,11.55
2018-04-23T16:35:15.161Z,12.70
2018-04-23T16:36:18.466Z,11.30
2018-04-23T16:37:21.625Z,10.88
2018-04-23T16:38:24.675Z,11.52
2018-04-23T16:39:27.755Z,11.60
2018-04-23T16:40:30.905Z,11.90
2018-04-23T16:41:33.939Z,11.12
2018-04-23T16:42:37.038Z,11.68
2018-04-23T16:43:40.080Z,11.65
2018-04-23T16:44:43.183Z,11.07
2018-04-23T16:45:46.303Z,10.48
2018-04-23T16:46:49.383Z,10.75
2018-04-23T16:47:52.514Z,11.23
2018-04-23T16:48:55.588Z,11.55
2018-04-23T16:49:58.665Z,11.50
2018-04-23T16:51:01.764Z,11.23
2018-04-23T16:52:04.902Z,11.48
2018-04-23T16:53:07.999Z,12.70
2018-04-23T16:54:11.301Z,11.98
2018-04-23T16:55:14.394Z,11.48
2018-04-23T16:56:17.564Z,13.30
2018-04-23T16:57:20.744Z,10.68
2018-04-23T16:58:24.028Z,12.57
2018-04-23T16:59:27.177Z,10.63
2018-04-23T17:00:30.337Z,11.23
2018-04-23T17:01:33.756Z,11.00
2018-04-23T17:02:36.897Z,10.65
2018-04-23T17:03:39.955Z,10.90
2018-04-23T17:04:43.250Z,11.60
2018-04-23T17:05:46.308Z,10.90
2018-04-23T17:06:49.518Z,11.98
2018-04-23T17:07:52.606Z,11.10
2018-04-23T17:08:55.661Z,10.40
2018-04-23T17:09:58.800Z,11.50
2018-04-23T17:11:01.982Z,11.43
2018-04-23T17:12:05.132Z,11.50
2018-04-23T17:13:08.262Z,10.85
2018-04-23T17:14:11.363Z,10.98
2018-04-23T17:15:14.616Z,11.35
2018-04-23T17:16:17.749Z,10.45
2018-04-23T17:17:20.816Z,11.18
2018-04-23T17:18:25.173Z,11.12
2018-04-23T17:19:28.258Z,11.38
2018-04-23T17:20:32.431Z,10.85
2018-04-23T17:21:35.939Z,10.85
2018-04-23T17:22:39.033Z,11.38
2018-04-23T17:23:42.123Z,12.43
2018-04-23T17:24:45.243Z,11.98
2018-04-23T17:25:48.271Z,14.25
2018-04-23T17:26:51.656Z,12.35
2018-04-23T17:27:54.865Z,13.23
2018-04-23T17:28:57.963Z,12.80
2018-04-23T17:30:01.026Z,12.68
2018-04-23T17:31:04.190Z,12.95
2018-04-23T17:32:07.327Z,14.25
2018-04-23T17:33:10.473Z,14.80
2018-04-23T17:34:13.524Z,14.25
2018-04-23T17:35:16.592Z,13.40
2018-04-23T17:36:19.680Z,15.68
2018-04-23T17:37:22.779Z,14.10
2018-04-23T17:38:26.107Z,14.98
2018-04-23T17:39:29.391Z,14.80
2018-04-23T17:40:32.559Z,14.18
2018-04-23T17:41:35.595Z,16.02
2018-04-23T17:42:38.667Z,13.48
2018-04-23T17:43:41.854Z,13.90
2018-04-23T17:44:44.965Z,13.95
2018-04-23T17:45:48.070Z,13.55
2018-04-23T17:46:51.213Z,14.60
2018-04-23T17:47:54.303Z,13.73
2018-04-23T17:48:57.440Z,14.63
2018-04-23T17:50:00.540Z,13.32
2018-04-23T17:51:03.632Z,12.73
2018-04-23T17:52:06.682Z,13.30
2018-04-23T17:53:09.734Z,12.90
2018-04-23T17:54:13.020Z,13.07
2018-04-23T17:55:16.119Z,13.75
2018-04-23T17:56:19.211Z,12.13
2018-04-23T17:57:22.304Z,14.40
2018-04-23T17:58:25.356Z,14.38
2018-04-23T17:59:28.458Z,13.07
2018-04-23T18:00:31.551Z,13.68
2018-04-23T18:01:34.606Z,12.80
2018-04-23T18:02:37.654Z,13.25
2018-04-23T18:03:40.898Z,14.15
2018-04-23T18:04:44.122Z,14.43
2018-04-23T18:05:47.501Z,13.52
2018-04-23T18:06:50.593Z,13.00
2018-04-23T18:07:53.815Z,13.98
2018-04-23T18:08:56.837Z,12.40
2018-04-23T18:09:59.970Z,14.48
2018-04-23T18:11:03.057Z,15.40
2018-04-23T18:12:06.250Z,15.05
2018-04-23T18:14:18.642Z,14.77
2018-04-23T18:15:21.772Z,13.73
2018-04-23T18:16:24.817Z,15.38
2018-04-23T18:17:27.981Z,14.20
2018-04-23T18:18:31.087Z,16.00
2018-04-23T18:19:34.231Z,15.73
2018-04-23T18:20:37.469Z,14.75
2018-04-23T18:21:40.516Z,14.90
2018-04-23T18:22:43.771Z,15.30
2018-04-23T18:23:46.862Z,16.58
2018-04-23T18:24:50.028Z,16.33
2018-04-23T18:25:53.081Z,15.45
2018-04-23T18:26:56.187Z,15.45
2018-04-23T18:27:59.272Z,15.45
2018-04-23T18:29:02.381Z,15.73
2018-04-23T18:30:05.472Z,16.73
2018-04-23T18:31:08.555Z,16.48
2018-04-23T18:32:11.634Z,16.77
2018-04-23T18:33:15.252Z,16.80
2018-04-23T18:34:18.305Z,15.25
2018-04-23T18:35:21.351Z,15.93
2018-04-23T18:36:24.435Z,15.43
2018-04-23T18:37:27.595Z,16.35
2018-04-23T18:38:30.694Z,16.87
2018-04-23T18:39:33.737Z,16.70
2018-04-23T18:40:36.852Z,17.65
2018-04-23T18:41:40.184Z,16.83
2018-04-23T18:42:44.433Z,16.17
2018-04-23T18:43:47.481Z,15.90
2018-04-23T18:44:50.560Z,16.35
2018-04-23T18:45:53.672Z,17.73
2018-04-23T18:46:56.804Z,16.75
2018-04-23T18:47:59.879Z,15.57
2018-04-23T18:49:02.985Z,17.15
2018-04-23T18:50:06.030Z,16.10
2018-04-23T18:51:09.074Z,16.95
2018-04-23T18:52:12.275Z,16.02
2018-04-23T18:53:15.463Z,16.27
2018-04-23T18:54:18.597Z,16.08
2018-04-23T18:55:21.684Z,16.50
2018-04-23T18:56:24.826Z,17.08
2018-04-23T18:57:28.029Z,16.48
2018-04-23T18:58:31.073Z,15.65
2018-04-23T18:59:34.271Z,15.93
2018-04-23T19:00:37.399Z,16.55
2018-04-23T19:01:40.500Z,16.55
2018-04-23T19:02:44.345Z,16.85
2018-04-23T19:03:47.402Z,16.50
2018-04-23T19:04:50.530Z,16.37
2018-04-23T19:05:53.580Z,17.30
2018-04-23T19:06:56.853Z,15.73
2018-04-23T19:07:59.920Z,15.68
2018-04-23T19:09:02.978Z,16.40
2018-04-23T19:10:06.086Z,15.80
2018-04-23T19:11:09.160Z,15.90
2018-04-23T19:12:12.278Z,17.08
2018-04-23T19:13:15.415Z,17.70
2018-04-23T19:14:18.518Z,14.93
2018-04-23T19:15:21.558Z,16.20
2018-04-23T19:16:24.732Z,17.55
2018-04-23T19:17:28.137Z,16.27
2018-04-23T19:18:31.266Z,15.52
2018-04-23T19:19:34.335Z,15.10
2018-04-23T19:20:37.383Z,16.42
2018-04-23T19:21:40.427Z,14.60
2018-04-23T19:22:43.534Z,15.32
2018-04-23T19:23:46.678Z,16.40
2018-04-23T19:24:49.857Z,15.07
2018-04-23T19:25:52.917Z,14.20
2018-04-23T19:26:55.971Z,14.27
2018-04-23T19:27:59.031Z,13.93
2018-04-23T19:29:02.131Z,15.18
2018-04-23T19:30:05.288Z,13.20
2018-04-23T19:31:08.385Z,14.50
2018-04-23T19:32:11.505Z,14.00
2018-04-23T19:33:14.617Z,12.82
2018-04-23T19:34:17.733Z,13.82
2018-04-23T19:35:20.779Z,13.10
2018-04-23T19:36:23.843Z,13.38
2018-04-23T19:37:26.924Z,13.90
2018-04-23T19:38:29.987Z,13.00
2018-04-23T19:39:33.152Z,12.37
2018-04-23T19:40:36.208Z,12.15
2018-04-23T19:41:39.309Z,12.35
2018-04-23T19:42:42.446Z,13.27
2018-04-23T19:43:45.511Z,13.77
2018-04-23T19:44:48.604Z,14.43
2018-04-23T19:45:51.779Z,11.88
2018-04-23T19:46:54.886Z,12.20
2018-04-23T19:47:58.925Z,12.00
2018-04-23T19:49:02.001Z,11.85
2018-04-23T19:50:05.496Z,11.85
2018-04-23T19:51:10.940Z,10.68
2018-04-23T19:52:14.201Z,12.20
2018-04-23T19:53:17.304Z,10.60
2018-04-23T19:54:21.445Z,11.55
2018-04-23T19:55:24.498Z,12.77
2018-04-23T19:56:27.639Z,12.20
2018-04-23T19:57:30.675Z,11.25
2018-04-23T19:58:33.859Z,11.77
2018-04-23T19:59:36.898Z,11.23
2018-04-23T20:00:40.033Z,11.50
2018-04-23T20:01:43.118Z,10.43
2018-04-23T20:02:46.145Z,10.38
2018-04-23T20:03:49.417Z,10.57
2018-04-23T20:04:52.452Z,11.63
2018-04-23T20:05:55.580Z,11.60
2018-04-23T20:06:58.692Z,15.25
2018-04-23T20:08:01.772Z,11.82
2018-04-23T20:09:05.635Z,10.88
2018-04-23T20:10:08.737Z,10.90
2018-04-23T20:11:11.895Z,11.02
2018-04-23T20:12:15.007Z,10.40
2018-04-23T20:13:18.179Z,12.05
2018-04-23T20:14:21.246Z,11.07
2018-04-23T20:15:24.341Z,10.88
2018-04-23T20:16:27.427Z,11.07
2018-04-23T20:17:30.499Z,10.93
2018-04-23T20:18:33.574Z,10.85
2018-04-23T20:19:36.716Z,11.15
2018-04-23T20:20:39.754Z,11.23
2018-04-23T20:21:42.906Z,11.05
2018-04-23T20:22:45.958Z,10.57
2018-04-23T20:23:49.088Z,11.30
2018-04-23T20:24:52.176Z,11.50
2018-04-23T20:25:55.227Z,11.40
2018-04-23T20:26:58.285Z,9.63
2018-04-23T20:28:01.350Z,10.63
2018-04-23T20:29:04.462Z,10.15
2018-04-23T20:30:07.498Z,10.70
2018-04-23T20:31:10.563Z,10.02
2018-04-23T20:32:13.620Z,10.30
2018-04-23T20:33:16.721Z,10.48
2018-04-23T20:34:19.800Z,10.15
2018-04-23T20:35:22.907Z,9.65
2018-04-23T20:36:26.004Z,10.95
2018-04-23T20:37:29.098Z,11.10
2018-04-23T20:38:32.262Z,10.38
2018-04-23T20:39:35.534Z,10.73